Time;durP1;ratioP1;P1;durP2;ratioP2;P2;SDS_P1;SDS_P2;PMS_P1;PMS_P2;Temp;Humidity;BMP_temperature;BMP_pressure;BME280_temperature;BME280_humidity;BME280_pressure;Samples;Min_cycle;Max_cycle;Signal;HPM_P1;HPM_P2
2024/01/10 00:02:01;;;;;;;1999.90;999.90;;;-3.20;99.90;;;;;;5091581;28;20036;-68
2024/01/10 00:04:27;;;;;;;1999.90;999.90;;;-3.20;99.90;;;;;;5091682;28;20284;-68
2024/01/10 00:06:53;;;;;;;1999.90;999.90;;;-3.30;99.90;;;;;;5072018;28;20081;-68
2024/01/10 00:09:19;;;;;;;1999.90;999.90;;;-3.30;99.90;;;;;;5090880;28;20024;-68
2024/01/10 00:11:44;;;;;;;1999.90;999.90;;;-3.30;99.90;;;;;;5089147;28;20032;-68
2024/01/10 00:14:10;;;;;;;1999.90;999.90;;;-3.20;99.90;;;;;;5088960;28;20082;-68
2024/01/10 00:16:36;;;;;;;1999.90;999.90;;;-3.30;99.90;;;;;;5092001;28;20091;-68
2024/01/10 00:19:02;;;;;;;1999.90;999.90;;;-3.20;99.90;;;;;;5090207;28;20024;-62
2024/01/10 00:21:28;;;;;;;1999.90;999.90;;;-3.30;99.90;;;;;;5089227;28;20338;-68
2024/01/10 00:23:54;;;;;;;1999.90;999.90;;;-3.30;99.90;;;;;;5095239;28;20658;-68
2024/01/10 00:26:20;;;;;;;1999.90;999.90;;;-3.30;99.90;;;;;;5091855;28;20107;-68
2024/01/10 00:28:46;;;;;;;1999.90;999.90;;;-3.30;99.90;;;;;;5095645;28;20028;-68
2024/01/10 00:31:12;;;;;;;1999.90;999.90;;;-3.40;99.90;;;;;;5094983;28;20074;-68
2024/01/10 00:33:38;;;;;;;;;;;-3.40;99.90;;;;;;5089032;28;20368;-69
2024/01/10 00:36:06;;;;;;;1999.90;999.90;;;-3.40;99.90;;;;;;5095634;28;20363;-68
2024/01/10 00:38:31;;;;;;;1999.90;999.90;;;-3.40;99.90;;;;;;5077773;28;20414;-68
2024/01/10 00:40:57;;;;;;;1999.90;999.90;;;-3.30;99.90;;;;;;5091795;28;20040;-68
2024/01/10 00:43:23;;;;;;;1999.90;999.90;;;-3.40;99.90;;;;;;5094270;28;20190;-68
2024/01/10 00:45:49;;;;;;;1999.90;999.90;;;-3.40;99.90;;;;;;5086916;28;20260;-68
2024/01/10 00:48:14;;;;;;;1999.90;999.90;;;-3.50;99.90;;;;;;5094380;28;20249;-68
2024/01/10 00:50:40;;;;;;;1999.90;999.90;;;-3.50;99.90;;;;;;5093304;28;20031;-68
2024/01/10 00:53:06;;;;;;;1999.90;999.90;;;-3.50;99.90;;;;;;5087132;28;20056;-68
2024/01/10 00:55:32;;;;;;;1999.90;999.90;;;-3.50;99.90;;;;;;5094020;28;20032;-68
2024/01/10 00:57:57;;;;;;;1999.90;999.90;;;-3.60;99.90;;;;;;5082570;28;20376;-68
2024/01/10 01:00:23;;;;;;;1999.90;999.90;;;-3.70;99.90;;;;;;5093891;28;20417;-68
2024/01/10 01:02:49;;;;;;;1999.90;999.90;;;-3.70;99.90;;;;;;5094850;28;20031;-68
2024/01/10 01:05:14;;;;;;;1999.90;999.90;;;-3.60;99.90;;;;;;5093327;28;20103;-68
2024/01/10 01:07:40;;;;;;;1999.90;999.90;;;-3.60;99.90;;;;;;5085456;28;20028;-68
2024/01/10 01:10:08;;;;;;;1999.90;999.90;;;-3.60;99.90;;;;;;5094380;28;20100;-68
2024/01/10 01:12:34;;;;;;;1999.90;999.90;;;-3.60;99.90;;;;;;5094285;28;20886;-69
2024/01/10 01:15:00;;;;;;;1999.90;999.90;;;-3.60;99.90;;;;;;5093604;28;20064;-68
2024/01/10 01:17:26;;;;;;;1999.90;999.90;;;-3.60;99.90;;;;;;5092642;28;20063;-68
2024/01/10 01:19:51;;;;;;;1999.90;999.90;;;-3.70;99.90;;;;;;5088810;28;20277;-68
2024/01/10 01:22:17;;;;;;;1999.90;999.90;;;-3.70;99.90;;;;;;5086000;28;20039;-68
2024/01/10 01:24:43;;;;;;;1999.90;999.90;;;-3.70;99.90;;;;;;5090383;28;20073;-62
2024/01/10 01:27:09;;;;;;;1999.90;999.90;;;-3.70;99.90;;;;;;5089913;28;20731;-62
2024/01/10 01:29:35;;;;;;;1999.90;999.90;;;-3.70;99.90;;;;;;5088294;28;20040;-68
2024/01/10 01:32:00;;;;;;;1999.90;999.90;;;-3.70;99.90;;;;;;5084690;28;20534;-68
2024/01/10 01:34:26;;;;;;;1999.90;999.90;;;-3.60;99.90;;;;;;5094382;28;20020;-68
2024/01/10 01:36:52;;;;;;;1999.90;999.90;;;-3.70;99.90;;;;;;5088691;28;20032;-69
2024/01/10 01:39:18;;;;;;;1999.90;999.90;;;-3.70;99.90;;;;;;5093819;28;20028;-69
2024/01/10 01:41:44;;;;;;;1999.90;999.90;;;-3.80;99.90;;;;;;5093638;28;20038;-68
2024/01/10 01:44:10;;;;;;;1999.90;999.90;;;-3.70;99.90;;;;;;5093195;28;20474;-68
2024/01/10 01:46:36;;;;;;;1999.90;999.90;;;-3.70;99.90;;;;;;5093481;28;20028;-68
2024/01/10 01:49:03;;;;;;;1999.90;999.90;;;-3.70;99.90;;;;;;5086562;28;20027;-68
2024/01/10 01:51:31;;;;;;;1999.90;999.90;;;-3.70;99.90;;;;;;5094001;28;20032;-68
2024/01/10 01:53:57;;;;;;;1999.90;999.90;;;-3.70;99.90;;;;;;5085105;28;20028;-68
2024/01/10 01:56:24;;;;;;;1999.90;999.90;;;-3.70;99.90;;;;;;5093714;28;20455;-68
2024/01/10 01:58:54;;;;;;;1999.90;999.90;;;-3.70;99.90;;;;;;5093309;28;20050;-68
2024/01/10 02:01:23;;;;;;;1999.90;999.90;;;-3.60;99.90;;;;;;5093993;28;20120;-68
2024/01/10 02:03:48;;;;;;;1999.90;999.90;;;-3.60;99.90;;;;;;5093059;28;20024;-67
2024/01/10 02:06:14;;;;;;;1999.90;999.90;;;-3.60;99.90;;;;;;5092641;28;20028;-62
2024/01/10 02:08:40;;;;;;;1999.90;999.90;;;-3.70;99.90;;;;;;5091393;28;20036;-68
2024/01/10 02:11:06;;;;;;;1999.90;999.90;;;-3.70;99.90;;;;;;5090721;28;20507;-68
2024/01/10 02:13:32;;;;;;;1999.90;999.90;;;-3.60;99.90;;;;;;5093016;28;20356;-68
2024/01/10 02:15:59;;;;;;;1999.90;999.90;;;-3.60;99.90;;;;;;5092677;28;20067;-69
2024/01/10 02:18:24;;;;;;;1999.90;999.90;;;-3.60;99.90;;;;;;5092802;28;20564;-68
2024/01/10 02:20:51;;;;;;;1999.90;999.90;;;-3.60;99.90;;;;;;5093630;28;20043;-68
2024/01/10 02:23:18;;;;;;;1999.90;999.90;;;-3.60;99.90;;;;;;5091739;28;20040;-68
2024/01/10 02:25:44;;;;;;;1999.90;999.90;;;-3.60;99.90;;;;;;5089015;28;20044;-68
2024/01/10 02:28:10;;;;;;;1999.90;999.90;;;-3.60;99.90;;;;;;5091875;28;20027;-68
2024/01/10 02:30:36;;;;;;;1999.90;999.90;;;-3.60;99.90;;;;;;5090748;28;20028;-62
2024/01/10 02:33:02;;;;;;;1999.90;999.90;;;-3.60;99.90;;;;;;5086250;28;20050;-62
2024/01/10 02:35:28;;;;;;;1999.90;999.90;;;-3.60;99.90;;;;;;5087682;28;20040;-69
2024/01/10 02:37:54;;;;;;;1999.90;999.90;;;-3.60;99.90;;;;;;5089501;28;20433;-68
2024/01/10 02:40:20;;;;;;;1999.90;999.90;;;-3.60;99.90;;;;;;5091658;28;20028;-68
2024/01/10 02:42:46;;;;;;;1999.90;999.90;;;-3.60;99.90;;;;;;5093063;28;20035;-68
2024/01/10 02:45:12;;;;;;;1999.90;999.90;;;-3.50;99.90;;;;;;5091226;28;20024;-68
2024/01/10 02:47:38;;;;;;;1999.90;999.90;;;-3.50;99.90;;;;;;5086319;28;20036;-68
2024/01/10 02:50:05;;;;;;;1999.90;999.90;;;-3.50;99.90;;;;;;5084973;28;20032;-68
2024/01/10 02:52:31;;;;;;;1999.90;999.90;;;-3.60;99.90;;;;;;5092374;28;20257;-68
2024/01/10 02:54:57;;;;;;;1999.90;999.90;;;-3.60;99.90;;;;;;5091468;28;20028;-68
2024/01/10 02:57:23;;;;;;;1999.90;999.90;;;-3.70;99.90;;;;;;5091846;28;20648;-62
2024/01/10 02:59:48;;;;;;;1999.90;999.90;;;-3.70;99.90;;;;;;5092877;28;20062;-68
2024/01/10 03:02:14;;;;;;;1999.90;999.90;;;-3.60;99.90;;;;;;5092374;28;20028;-68
2024/01/10 03:04:41;;;;;;;1999.90;999.90;;;-3.70;99.90;;;;;;5074196;28;20051;-68
2024/01/10 03:07:06;;;;;;;1999.90;999.90;;;-3.80;99.90;;;;;;5092417;28;20287;-68
2024/01/10 03:09:32;;;;;;;1999.90;999.90;;;-3.70;99.90;;;;;;5089199;28;20040;-68
2024/01/10 03:11:58;;;;;;;1999.90;999.90;;;-3.70;99.90;;;;;;5092524;28;20071;-62
2024/01/10 03:14:23;;;;;;;1999.90;999.90;;;-3.70;99.90;;;;;;5091539;28;20027;-68
2024/01/10 03:16:49;;;;;;;1999.90;999.90;;;-3.70;99.90;;;;;;5092679;28;20239;-68
2024/01/10 03:19:15;;;;;;;1999.90;999.90;;;-3.80;99.90;;;;;;5089033;28;20036;-68
2024/01/10 03:21:41;;;;;;;1999.90;999.90;;;-3.70;99.90;;;;;;5091621;28;20031;-68
2024/01/10 03:24:07;;;;;;;1999.90;999.90;;;-3.80;99.90;;;;;;5091847;28;20032;-68
2024/01/10 03:26:33;;;;;;;1999.90;999.90;;;-3.80;99.90;;;;;;5088841;28;20115;-68
2024/01/10 03:29:00;;;;;;;1999.90;999.90;;;-3.80;99.90;;;;;;5083315;28;20123;-68
2024/01/10 03:31:28;;;;;;;1999.90;999.90;;;-3.70;99.90;;;;;;5090443;28;20055;-68
2024/01/10 03:33:54;;;;;;;1999.90;999.90;;;-3.70;99.90;;;;;;5085539;28;20036;-68
2024/01/10 03:36:19;;;;;;;1999.90;999.90;;;-3.70;99.90;;;;;;5091416;28;20036;-68
2024/01/10 03:38:45;;;;;;;1999.90;999.90;;;-3.70;99.90;;;;;;5091557;28;20028;-68
2024/01/10 03:41:14;;;;;;;1999.90;999.90;;;-3.60;99.90;;;;;;5092138;28;20264;-68
2024/01/10 03:43:41;;;;;;;1999.90;999.90;;;-3.60;99.90;;;;;;5091953;28;20028;-68
2024/01/10 03:46:07;;;;;;;;;;;-3.50;99.90;;;;;;5091070;28;20498;-69
2024/01/10 03:48:33;;;;;;;1999.90;999.90;;;-3.50;99.90;;;;;;5091417;28;19912;-68
2024/01/10 03:50:58;;;;;;;1999.90;999.90;;;-3.50;99.90;;;;;;5091949;28;20418;-68
2024/01/10 03:53:24;;;;;;;1999.90;999.90;;;-3.50;99.90;;;;;;5090874;28;20355;-68
2024/01/10 03:55:50;;;;;;;1999.90;999.90;;;-3.50;99.90;;;;;;5088597;28;20304;-68
2024/01/10 03:58:15;;;;;;;1999.90;999.90;;;-3.50;99.90;;;;;;5090963;28;20415;-68
2024/01/10 04:00:41;;;;;;;1999.90;999.90;;;-3.50;99.90;;;;;;5061494;28;20021;-68
2024/01/10 04:03:07;;;;;;;1999.90;999.90;;;-3.60;99.90;;;;;;5086989;28;20153;-68
2024/01/10 04:05:32;;;;;;;1999.90;999.90;;;-3.60;99.90;;;;;;5095489;28;20078;-68
2024/01/10 04:07:58;;;;;;;1999.90;999.90;;;-3.60;99.90;;;;;;5095823;28;20028;-68
2024/01/10 04:10:24;;;;;;;1999.90;999.90;;;-3.80;99.90;;;;;;5094086;28;20319;-68
2024/01/10 04:12:50;;;;;;;1999.90;999.90;;;-3.90;99.90;;;;;;5094438;28;20051;-68
2024/01/10 04:15:17;;;;;;;1999.90;999.90;;;-3.90;99.90;;;;;;5095633;28;20031;-69
2024/01/10 04:17:43;;;;;;;1999.90;999.90;;;-4.00;99.90;;;;;;5095087;28;20071;-67
2024/01/10 04:20:09;;;;;;;1999.90;999.90;;;-4.00;99.90;;;;;;5095872;28;20028;-68
2024/01/10 04:22:35;;;;;;;1999.90;999.90;;;-4.00;99.90;;;;;;5095513;28;20024;-68
2024/01/10 04:25:02;;;;;;;1999.90;999.90;;;-4.00;99.90;;;;;;5076171;28;20038;-68
2024/01/10 04:27:28;;;;;;;1999.90;999.90;;;-4.00;99.90;;;;;;5088670;28;20024;-68
2024/01/10 04:29:54;;;;;;;1999.90;999.90;;;-4.00;99.90;;;;;;5076941;28;20020;-68
2024/01/10 04:32:20;;;;;;;1999.90;999.90;;;-4.00;99.90;;;;;;5095396;28;20434;-68
2024/01/10 04:34:45;;;;;;;1999.90;999.90;;;-4.00;99.90;;;;;;5094529;28;20115;-68
2024/01/10 04:37:11;;;;;;;1999.90;999.90;;;-3.90;99.90;;;;;;5095127;28;20047;-62
2024/01/10 04:39:42;;;;;;;1999.90;999.90;;;-3.80;99.90;;;;;;5093940;28;20032;-68
2024/01/10 04:42:10;;;;;;;1999.90;999.90;;;-3.80;99.90;;;;;;5075370;28;20063;-68
2024/01/10 04:44:36;;;;;;;1999.90;999.90;;;-3.80;99.90;;;;;;5094647;28;20035;-68
2024/01/10 04:47:02;;;;;;;1999.90;999.90;;;-3.80;99.90;;;;;;5063797;28;20331;-68
2024/01/10 04:49:27;;;;;;;1999.90;999.90;;;-3.80;99.90;;;;;;5092117;28;20028;-62
2024/01/10 04:51:53;;;;;;;1999.90;999.90;;;-3.80;99.90;;;;;;5093970;28;20111;-68
2024/01/10 04:54:19;;;;;;;1999.90;999.90;;;-3.70;99.90;;;;;;5091998;28;20419;-68
2024/01/10 04:56:44;;;;;;;1999.90;999.90;;;-3.70;99.90;;;;;;5094246;28;20054;-67
2024/01/10 04:59:10;;;;;;;1999.90;999.90;;;-3.70;99.90;;;;;;5094689;28;20414;-68
2024/01/10 05:01:37;;;;;;;1999.90;999.90;;;-3.70;99.90;;;;;;5094169;28;20032;-68
2024/01/10 05:04:03;;;;;;;1999.90;999.90;;;-3.80;99.90;;;;;;5094183;28;20028;-68
2024/01/10 05:06:29;;;;;;;1999.90;999.90;;;-3.90;99.90;;;;;;5087521;28;20048;-68
2024/01/10 05:08:57;;;;;;;1999.90;999.90;;;-4.00;99.90;;;;;;5093235;28;20431;-68
2024/01/10 05:11:24;;;;;;;1999.90;999.90;;;-4.00;99.90;;;;;;5094252;28;20336;-68
2024/01/10 05:13:50;;;;;;;;;;;-4.10;99.90;;;;;;5092582;28;20032;-68
2024/01/10 05:16:16;;;;;;;1999.90;999.90;;;-4.20;99.90;;;;;;5094447;28;19911;-61
2024/01/10 05:18:41;;;;;;;1999.90;999.90;;;-4.20;99.90;;;;;;5094535;28;20036;-68
2024/01/10 05:21:08;;;;;;;1999.90;999.90;;;-4.20;99.90;;;;;;5092005;28;20438;-68
2024/01/10 05:23:34;;;;;;;1999.90;999.90;;;-4.20;99.90;;;;;;5090032;28;20021;-64
2024/01/10 05:25:59;;;;;;;1999.90;999.90;;;-4.20;99.90;;;;;;5093369;28;20028;-68
2024/01/10 05:28:25;;;;;;;1999.90;999.90;;;-4.20;99.90;;;;;;5092438;28;20028;-68
2024/01/10 05:30:51;;;;;;;1999.90;999.90;;;-4.20;99.90;;;;;;5093716;28;20319;-67
2024/01/10 05:33:16;;;;;;;1999.90;999.90;;;-4.20;99.90;;;;;;5073736;28;20256;-68
2024/01/10 05:35:42;;;;;;;1999.90;999.90;;;-4.10;99.90;;;;;;5093733;28;20048;-68
2024/01/10 05:38:09;;;;;;;1999.90;999.90;;;-4.10;99.90;;;;;;5092058;28;20437;-68
2024/01/10 05:40:34;;;;;;;1999.90;999.90;;;-4.00;99.90;;;;;;5093162;28;20036;-68
2024/01/10 05:43:00;;;;;;;1999.90;999.90;;;-3.90;99.90;;;;;;5093078;28;20085;-68
2024/01/10 05:45:26;;;;;;;1999.90;999.90;;;-3.90;99.90;;;;;;5093058;28;20048;-68
2024/01/10 05:47:52;;;;;;;1999.90;999.90;;;-3.90;99.90;;;;;;5090664;28;20021;-68
2024/01/10 05:50:19;;;;;;;1999.90;999.90;;;-3.80;99.90;;;;;;5092115;28;20076;-68
2024/01/10 05:52:45;;;;;;;1999.90;999.90;;;-3.80;99.90;;;;;;5090737;28;20028;-67
2024/01/10 05:55:11;;;;;;;1999.90;999.90;;;-3.80;99.90;;;;;;5089931;28;20031;-68
2024/01/10 05:57:37;;;;;;;1999.90;999.90;;;-3.70;99.90;;;;;;5093382;28;20039;-62
2024/01/10 06:00:04;;;;;;;1999.90;999.90;;;-3.80;99.90;;;;;;5093092;28;20035;-68
2024/01/10 06:02:30;;;;;;;1999.90;999.90;;;-3.80;99.90;;;;;;5092918;28;20450;-68
2024/01/10 06:04:56;;;;;;;1999.90;999.90;;;-3.70;99.90;;;;;;5093381;28;20024;-62
2024/01/10 06:07:22;;;;;;;1999.90;999.90;;;-3.70;99.90;;;;;;5093021;28;20524;-68
2024/01/10 06:09:47;;;;;;;1999.90;999.90;;;-3.60;99.90;;;;;;5093298;28;20031;-67
2024/01/10 06:12:14;;;;;;;1999.90;999.90;;;-3.60;99.90;;;;;;5092911;28;20408;-68
2024/01/10 06:14:39;;;;;;;1999.90;999.90;;;-3.70;99.90;;;;;;5091369;28;20050;-68
2024/01/10 06:17:06;;;;;;;1999.90;999.90;;;-3.70;99.90;;;;;;5093546;28;20027;-68
2024/01/10 06:19:31;;;;;;;1999.90;999.90;;;-3.70;99.90;;;;;;5074858;28;20074;-68
2024/01/10 06:21:58;;;;;;;1999.90;999.90;;;-3.70;99.90;;;;;;5093900;28;20036;-68
2024/01/10 06:24:24;;;;;;;1999.90;999.90;;;-3.70;99.90;;;;;;5074275;28;20042;-68
2024/01/10 06:26:50;;;;;;;1999.90;999.90;;;-3.70;99.90;;;;;;5091228;28;20024;-68
2024/01/10 06:29:16;;;;;;;1999.90;999.90;;;-3.70;99.90;;;;;;5075416;28;20016;-68
2024/01/10 06:31:42;;;;;;;1999.90;999.90;;;-3.70;99.90;;;;;;5089645;28;20036;-68
2024/01/10 06:34:08;;;;;;;1999.90;999.90;;;-3.70;99.90;;;;;;5093191;28;20497;-68
2024/01/10 06:36:34;;;;;;;1999.90;999.90;;;-3.70;99.90;;;;;;5074028;28;20020;-68
2024/01/10 06:39:01;;;;;;;1999.90;999.90;;;-3.60;99.90;;;;;;5084245;28;20041;-68
2024/01/10 06:41:27;;;;;;;1999.90;999.90;;;-3.60;99.90;;;;;;5092329;28;20326;-68
2024/01/10 06:43:53;;;;;;;1999.90;999.90;;;-3.60;99.90;;;;;;5092567;28;20044;-68
2024/01/10 06:46:19;;;;;;;1999.90;999.90;;;-3.60;99.90;;;;;;5089967;28;20024;-68
2024/01/10 06:48:45;;;;;;;1999.90;999.90;;;-3.60;99.90;;;;;;5088968;28;20028;-68
2024/01/10 06:51:14;;;;;;;1999.90;999.90;;;-3.60;99.90;;;;;;5093076;28;20416;-68
2024/01/10 06:53:40;;;;;;;1999.90;999.90;;;-3.60;99.90;;;;;;5084861;28;20543;-68
2024/01/10 06:56:07;;;;;;;1999.90;999.90;;;-3.70;99.90;;;;;;5093128;28;20028;-68
2024/01/10 06:58:33;;;;;;;1999.90;999.90;;;-3.70;99.90;;;;;;5092032;28;20168;-62
2024/01/10 07:01:04;;;;;;;1999.90;999.90;;;-3.70;99.90;;;;;;5086751;28;20025;-68
2024/01/10 07:03:31;;;;;;;1999.90;999.90;;;-3.70;99.90;;;;;;5088171;28;20020;-68
2024/01/10 07:05:57;;;;;;;1999.90;999.90;;;-3.70;99.90;;;;;;5093090;28;20028;-68
2024/01/10 07:08:22;;;;;;;1999.90;999.90;;;-3.60;99.90;;;;;;5080628;28;20120;-68
2024/01/10 07:10:48;;;;;;;1999.90;999.90;;;-3.60;99.90;;;;;;5073927;28;20028;-68
2024/01/10 07:13:14;;;;;;;1999.90;999.90;;;-3.60;99.90;;;;;;5091711;28;20024;-61
2024/01/10 07:15:39;;;;;;;1999.90;999.90;;;-3.60;99.90;;;;;;5088370;28;20604;-67
2024/01/10 07:18:06;;;;;;;1999.90;999.90;;;-3.60;99.90;;;;;;5074171;28;20489;-68
2024/01/10 07:20:32;;;;;;;1999.90;999.90;;;-3.50;99.90;;;;;;5081751;28;20024;-68
2024/01/10 07:22:59;;;;;;;1999.90;999.90;;;-3.60;99.90;;;;;;5079247;28;20070;-68
2024/01/10 07:25:25;;;;;;;1999.90;999.90;;;-3.50;99.90;;;;;;5078711;28;20024;-68
2024/01/10 07:27:54;;;;;;;1999.90;999.90;;;-3.50;99.90;;;;;;5080056;28;20020;-68
2024/01/10 07:30:20;;;;;;;1999.90;999.90;;;-3.60;99.90;;;;;;5088270;28;20027;-68
2024/01/10 07:32:46;;;;;;;1999.90;999.90;;;-3.60;99.90;;;;;;5086195;28;20049;-68
2024/01/10 07:35:15;;;;;;;1999.90;999.90;;;-3.60;99.90;;;;;;5084768;28;20020;-67
2024/01/10 07:37:42;;;;;;;1999.90;999.90;;;-3.60;99.90;;;;;;5080671;28;20028;-68
2024/01/10 07:40:10;;;;;;;1999.90;999.90;;;-3.60;99.90;;;;;;5083275;28;20035;-68
2024/01/10 07:42:37;;;;;;;1999.90;999.90;;;-3.60;99.90;;;;;;5090469;28;20031;-68
2024/01/10 07:45:04;;;;;;;1999.90;999.90;;;-3.60;99.90;;;;;;5074027;28;20028;-68
2024/01/10 07:47:39;;;;;;;;;;;-3.60;99.90;;;;;;5092121;28;20449;-68
2024/01/10 07:50:10;;;;;;;1999.90;999.90;;;-3.70;99.90;;;;;;5091150;28;19918;-68
2024/01/10 07:52:36;;;;;;;1999.90;999.90;;;-3.80;99.90;;;;;;5072351;28;20036;-68
2024/01/10 07:55:04;;;;;;;1999.90;999.90;;;-3.80;99.90;;;;;;5081262;28;20020;-67
2024/01/10 07:57:31;;;;;;;1999.90;999.90;;;-3.70;99.90;;;;;;5087355;28;20112;-68
2024/01/10 07:59:56;;;;;;;1999.90;999.90;;;-3.60;99.90;;;;;;5089103;28;20035;-68
2024/01/10 08:02:22;;;;;;;1999.90;999.90;;;-3.50;99.90;;;;;;5083033;28;20044;-67
2024/01/10 08:04:48;;;;;;;1999.90;999.90;;;-3.50;99.90;;;;;;5070568;28;20029;-68
2024/01/10 08:07:14;;;;;;;1999.90;999.90;;;-3.60;99.90;;;;;;5087222;28;20061;-68
2024/01/10 08:09:39;;;;;;;1999.90;999.90;;;-3.50;99.90;;;;;;5090776;28;20122;-68
2024/01/10 08:12:05;;;;;;;1999.90;999.90;;;-3.60;99.90;;;;;;5090643;28;20031;-68
2024/01/10 08:14:31;;;;;;;1999.90;999.90;;;-3.60;99.90;;;;;;5091012;28;20302;-68
2024/01/10 08:17:00;;;;;;;1999.90;999.90;;;-3.50;99.90;;;;;;5088606;28;20032;-62
2024/01/10 08:19:27;;;;;;;1999.90;999.90;;;-3.50;99.90;;;;;;5091261;28;20016;-68
2024/01/10 08:21:53;;;;;;;;;;;-3.50;99.90;;;;;;5091981;28;20028;-68
2024/01/10 08:24:19;;;;;;;1999.90;999.90;;;-3.50;99.90;;;;;;5072414;28;19919;-67
2024/01/10 08:26:45;;;;;;;1999.90;999.90;;;-3.50;99.90;;;;;;5088235;28;20056;-68
2024/01/10 08:29:10;;;;;;;1999.90;999.90;;;-3.40;99.90;;;;;;5088775;28;20047;-68
2024/01/10 08:31:36;;;;;;;1999.90;999.90;;;-3.40;99.90;;;;;;5088688;28;20357;-67
2024/01/10 08:34:02;;;;;;;1999.90;999.90;;;-3.40;99.90;;;;;;5072269;28;20454;-68
2024/01/10 08:36:28;;;;;;;1999.90;999.90;;;-3.40;99.90;;;;;;5078877;28;20033;-68
2024/01/10 08:38:54;;;;;;;1999.90;999.90;;;-3.30;99.90;;;;;;5084647;28;20446;-68
2024/01/10 08:41:19;;;;;;;1999.90;999.90;;;-3.30;99.90;;;;;;5086995;28;20042;-68
2024/01/10 08:43:47;;;;;;;1999.90;999.90;;;-3.30;99.90;;;;;;5092221;28;20032;-68
2024/01/10 08:46:12;;;;;;;1999.90;999.90;;;-3.30;99.90;;;;;;5095085;28;20028;-68
2024/01/10 08:48:38;;;;;;;1999.90;999.90;;;-3.20;99.90;;;;;;5084231;28;20081;-68
2024/01/10 08:51:04;;;;;;;1999.90;999.90;;;-3.20;99.90;;;;;;5083226;28;20104;-68
2024/01/10 08:53:30;;;;;;;1999.90;999.90;;;-3.20;99.90;;;;;;5086290;28;20036;-68
2024/01/10 08:55:56;;;;;;;1999.90;999.90;;;-3.10;99.90;;;;;;5091452;28;20031;-68
2024/01/10 08:58:21;;;;;;;1999.90;999.90;;;-3.10;99.90;;;;;;5083289;28;20036;-68
2024/01/10 09:00:47;;;;;;;1999.90;999.90;;;-3.00;99.90;;;;;;5077396;28;20040;-68
2024/01/10 09:03:13;;;;;;;1999.90;999.90;;;-3.00;99.90;;;;;;5069030;28;20342;-68
2024/01/10 09:05:38;;;;;;;1999.90;999.90;;;-3.00;99.90;;;;;;5085237;28;20016;-68
2024/01/10 09:08:04;;;;;;;1999.90;999.90;;;-3.00;99.90;;;;;;5076534;28;20024;-68
2024/01/10 09:10:30;;;;;;;1999.90;999.90;;;-3.00;99.90;;;;;;5093347;28;20034;-68
2024/01/10 09:12:58;;;;;;;1999.90;999.90;;;-2.90;99.90;;;;;;5086923;28;20056;-65
2024/01/10 09:15:24;;;;;;;1999.90;999.90;;;-2.90;99.90;;;;;;5065175;28;20173;-68
2024/01/10 09:17:52;;;;;;;1999.90;999.90;;;-2.90;99.90;;;;;;5074995;28;20023;-67
2024/01/10 09:20:18;;;;;;;1999.90;999.90;;;-2.80;99.90;;;;;;5089470;28;20040;-67
2024/01/10 09:22:44;;;;;;;1999.90;999.90;;;-2.80;99.90;;;;;;5094242;28;20028;-68
2024/01/10 09:25:12;;;;;;;1999.90;999.90;;;-2.80;99.90;;;;;;5094118;28;20050;-62
2024/01/10 09:27:41;;;;;;;1999.90;999.90;;;-2.70;99.90;;;;;;5093784;28;20445;-67
2024/01/10 09:30:10;;;;;;;1999.90;999.90;;;-2.70;99.90;;;;;;5073876;28;20020;-68
2024/01/10 09:32:36;;;;;;;1999.90;999.90;;;-2.60;99.90;;;;;;5090677;28;20050;-68
2024/01/10 09:35:02;;;;;;;1999.90;999.90;;;-2.60;99.90;;;;;;5093959;28;20024;-67
2024/01/10 09:37:27;;;;;;;1999.90;999.90;;;-2.50;99.90;;;;;;5075598;28;20032;-68
2024/01/10 09:39:53;;;;;;;1999.90;999.90;;;-2.50;99.90;;;;;;5093584;28;20104;-62
2024/01/10 09:42:25;;;;;;;1999.90;999.90;;;-2.50;99.90;;;;;;5094775;28;20596;-64
2024/01/10 09:44:52;;;;;;;1999.90;999.90;;;-2.40;99.90;;;;;;5084879;28;20411;-68
2024/01/10 09:47:20;;;;;;;1999.90;999.90;;;-2.40;99.90;;;;;;5084079;28;20024;-67
2024/01/10 09:49:46;;;;;;;1999.90;999.90;;;-2.30;99.90;;;;;;5069685;28;20386;-68
2024/01/10 09:52:27;;;;;;;1999.90;999.90;;;-2.20;99.90;;;;;;5084220;28;20058;-68
2024/01/10 09:54:58;;;;;;;1999.90;999.90;;;-2.20;99.90;;;;;;5069620;28;20400;-67
2024/01/10 09:57:25;;;;;;;1999.90;999.90;;;-2.10;99.90;;;;;;5092950;28;20016;-62
2024/01/10 09:59:52;;;;;;;1999.90;999.90;;;-2.00;99.90;;;;;;5089969;28;20012;-68
2024/01/10 10:02:19;;;;;;;1999.90;999.90;;;-2.00;99.90;;;;;;5087875;28;20078;-68
2024/01/10 10:04:56;;;;;;;1999.90;999.90;;;-2.00;99.90;;;;;;5083936;28;20024;-68
2024/01/10 10:07:22;;;;;;;1999.90;999.90;;;-1.90;99.90;;;;;;5087075;28;20096;-67
2024/01/10 10:09:48;;;;;;;1999.90;999.90;;;-1.90;99.90;;;;;;5091285;28;20468;-68
2024/01/10 10:12:14;;;;;;;1999.90;999.90;;;-1.90;99.90;;;;;;5087754;28;20019;-62
2024/01/10 10:14:39;;;;;;;1999.90;999.90;;;-1.80;99.90;;;;;;5087447;28;20020;-62
2024/01/10 10:17:23;;;;;;;1999.90;999.90;;;-1.70;99.90;;;;;;5087726;28;20024;-68
2024/01/10 10:19:48;;;;;;;1999.90;999.90;;;-1.70;99.90;;;;;;5086117;28;20099;-67
2024/01/10 10:22:14;;;;;;;1999.90;999.90;;;-1.70;99.90;;;;;;5087068;28;20165;-67
2024/01/10 10:24:44;;;;;;;1999.90;999.90;;;-1.70;99.90;;;;;;5092534;28;20052;-68
2024/01/10 10:27:12;;;;;;;1999.90;999.90;;;-1.60;99.90;;;;;;5088725;28;20353;-67
2024/01/10 10:29:39;;;;;;;1999.90;999.90;;;-1.70;99.90;;;;;;5091105;28;20052;-62
2024/01/10 10:32:05;;;;;;;;;;;-1.60;99.90;;;;;;5093076;28;20458;-67
2024/01/10 10:34:35;;;;;;;1999.90;999.90;;;-1.50;99.90;;;;;;5087577;28;19904;-67
2024/01/10 10:37:01;;;;;;;1999.90;999.90;;;-1.40;99.90;;;;;;5089031;28;20354;-68
2024/01/10 10:39:27;;;;;;;1999.90;999.90;;;-1.40;99.90;;;;;;5087936;28;20024;-62
2024/01/10 10:41:57;;;;;;;1999.90;999.90;;;-1.40;99.90;;;;;;5092336;28;20036;-67
2024/01/10 10:44:24;;;;;;;1999.90;999.90;;;-1.40;99.90;;;;;;5093482;28;20028;-67
2024/01/10 10:46:56;;;;;;;1999.90;999.90;;;-1.40;99.90;;;;;;5092700;28;20023;-67
2024/01/10 10:49:29;;;;;;;1999.90;999.90;;;-1.30;99.90;;;;;;5093264;28;20085;-67
2024/01/10 10:51:57;;;;;;;1999.90;999.90;;;-1.30;99.90;;;;;;5092072;28;20119;-68
2024/01/10 10:54:25;;;;;;;1999.90;999.90;;;-1.30;99.90;;;;;;5074810;28;20111;-68
2024/01/10 10:56:53;;;;;;;1999.90;999.90;;;-1.20;99.90;;;;;;5084785;28;20364;-68
2024/01/10 10:59:20;;;;;;;1999.90;999.90;;;-1.10;99.90;;;;;;5063858;28;20032;-62
2024/01/10 11:01:47;;;;;;;1999.90;999.90;;;-1.00;99.90;;;;;;5086579;28;20141;-68
2024/01/10 11:04:14;;;;;;;1999.90;999.90;;;-1.00;99.90;;;;;;5079188;28;20042;-67
2024/01/10 11:06:40;;;;;;;1999.90;999.90;;;-1.10;99.90;;;;;;5082429;28;20028;-62
2024/01/10 11:09:12;;;;;;;1999.90;999.90;;;-1.00;99.90;;;;;;5082754;28;20310;-67
2024/01/10 11:11:59;;;;;;;1999.90;999.90;;;-1.00;99.90;;;;;;5086118;28;20023;-67
2024/01/10 11:15:04;;;;;;;1999.90;999.90;;;-1.00;99.90;;;;;;5072995;28;20038;-67
2024/01/10 11:17:51;;;;;;;1999.90;999.90;;;-0.90;99.90;;;;;;5088000;28;20028;-67
2024/01/10 11:20:22;;;;;;;1999.90;999.90;;;-0.90;99.90;;;;;;5082297;28;20024;-67
2024/01/10 11:23:14;;;;;;;1999.90;999.90;;;-0.90;99.90;;;;;;5090444;28;20069;-68
2024/01/10 11:25:51;;;;;;;1999.90;999.90;;;-0.80;99.90;;;;;;5086328;28;20095;-67
2024/01/10 11:28:17;;;;;;;1999.90;999.90;;;-0.80;99.90;;;;;;5081787;28;20052;-67
2024/01/10 11:30:51;;;;;;;1999.90;999.90;;;-0.90;99.90;;;;;;5069326;28;20082;-62
2024/01/10 11:33:24;;;;;;;1999.90;999.90;;;-0.80;99.90;;;;;;5085475;28;20028;-67
2024/01/10 11:36:16;;;;;;;1999.90;999.90;;;-0.80;99.90;;;;;;5074079;28;20044;-62
2024/01/10 11:38:54;;;;;;;1999.90;999.90;;;-0.80;99.90;;;;;;5084876;28;20126;-68
2024/01/10 11:41:30;;;;;;;1999.90;999.90;;;-0.80;99.90;;;;;;5086778;28;20040;-62
2024/01/10 11:44:11;;;;;;;1999.90;999.90;;;-0.80;99.90;;;;;;5082090;28;20067;-67
2024/01/10 11:46:44;;;;;;;1999.90;999.90;;;-0.80;99.90;;;;;;5087174;28;20055;-62
2024/01/10 11:49:11;;;;;;;1999.90;999.90;;;-0.70;99.90;;;;;;5089229;28;20020;-67
2024/01/10 11:51:38;;;;;;;1999.90;999.90;;;-0.70;99.90;;;;;;5091184;28;20038;-68
2024/01/10 11:54:05;;;;;;;1999.90;999.90;;;-0.60;99.90;;;;;;5086704;28;20029;-67
2024/01/10 11:56:40;;;;;;;;;;;-0.60;99.90;;;;;;5089784;28;20016;-67
2024/01/10 11:59:11;;;;;;;1999.90;999.90;;;-0.60;99.90;;;;;;5091402;28;19947;-67
2024/01/10 12:01:41;;;;;;;1999.90;999.90;;;-0.60;99.90;;;;;;5091320;28;20036;-62